VTK609 UHWW-UHMM
Flight info
| Callsign | VTK609 |
|---|---|
| Flight time | 2h 52m |
| Altitude | 37000 |
| Route | DOLMA2F DOLMA B356 TD T575 LUTEL L731 LALET N222 NA L160 BANOT BANOT5J |
| Aircraft | A319/M-SDE3FGHIRWY/LB1 |
Departure
| Time | 2026-05-08 21:51 |
|---|---|
| Airport | Vladivostok International Airport (UHWW) |
Arrival
| Time | 2026-05-09 00:43 |
|---|---|
| Airport | Sokol Airport (UHMM) |
| Time | Latitude | Longitude | Altitude | Speed | Heading |
|---|---|---|---|---|---|
| 2026-05-08 21:34 | 43.39860 | 132.16418 | 61 ft | 0 kts | 151° |
| 2026-05-08 21:44 | 43.39859 | 132.16419 | 41 ft | 1 kts | 151° |
| 2026-05-08 21:44 | 43.39839 | 132.16434 | 64 ft | 5 kts | 151° |
| 2026-05-08 21:44 | 43.39803 | 132.16429 | 66 ft | 7 kts | 217° |
| 2026-05-08 21:45 | 43.39776 | 132.16365 | 68 ft | 9 kts | 241° |
| 2026-05-08 21:45 | 43.39744 | 132.16285 | 63 ft | 9 kts | 241° |
| 2026-05-08 21:45 | 43.39762 | 132.16208 | 65 ft | 11 kts | 327° |
| 2026-05-08 21:45 | 43.39834 | 132.16154 | 67 ft | 11 kts | 331° |
| 2026-05-08 21:46 | 43.39891 | 132.16105 | 61 ft | 9 kts | 310° |
| 2026-05-08 21:46 | 43.39874 | 132.16014 | 64 ft | 12 kts | 240° |
| 2026-05-08 21:46 | 43.39830 | 132.15907 | 65 ft | 14 kts | 240° |
| 2026-05-08 21:46 | 43.39778 | 132.15779 | 68 ft | 17 kts | 240° |
| 2026-05-08 21:47 | 43.39718 | 132.15632 | 66 ft | 19 kts | 241° |
| 2026-05-08 21:47 | 43.39650 | 132.15460 | 65 ft | 22 kts | 241° |
| 2026-05-08 21:47 | 43.39572 | 132.15269 | 66 ft | 24 kts | 240° |
| 2026-05-08 21:47 | 43.39488 | 132.15064 | 61 ft | 23 kts | 241° |
| 2026-05-08 21:48 | 43.39405 | 132.14858 | 62 ft | 26 kts | 241° |
| 2026-05-08 21:48 | 43.39327 | 132.14665 | 65 ft | 18 kts | 241° |
| 2026-05-08 21:48 | 43.39271 | 132.14525 | 62 ft | 16 kts | 241° |
| 2026-05-08 21:48 | 43.39219 | 132.14397 | 59 ft | 11 kts | 240° |
| 2026-05-08 21:49 | 43.39194 | 132.14315 | 64 ft | 9 kts | 272° |
| 2026-05-08 21:49 | 43.39243 | 132.14256 | 67 ft | 11 kts | 331° |
| 2026-05-08 21:49 | 43.39306 | 132.14207 | 68 ft | 10 kts | 330° |
| 2026-05-08 21:49 | 43.39369 | 132.14180 | 67 ft | 10 kts | 24° |
| 2026-05-08 21:50 | 43.39389 | 132.14215 | 66 ft | 0 kts | 61° |
| 2026-05-08 21:50 | 43.39420 | 132.14293 | 65 ft | 33 kts | 61° |
| 2026-05-08 21:50 | 43.39644 | 132.14845 | 69 ft | 97 kts | 61° |
| 2026-05-08 21:51 | 43.40069 | 132.15897 | 95 ft | 150 kts | 61° |
| 2026-05-08 21:51 | 43.40565 | 132.17135 | 756 ft | 144 kts | 60° |
| 2026-05-08 21:51 | 43.41048 | 132.18347 | 1374 ft | 147 kts | 57° |
| 2026-05-08 21:51 | 43.41586 | 132.19669 | 1665 ft | 169 kts | 55° |
| 2026-05-08 21:52 | 43.42204 | 132.21167 | 1973 ft | 191 kts | 56° |
| 2026-05-08 21:52 | 43.42897 | 132.22862 | 2294 ft | 216 kts | 56° |
| 2026-05-08 21:52 | 43.43672 | 132.24771 | 2723 ft | 241 kts | 57° |
| 2026-05-08 21:52 | 43.44519 | 132.26869 | 3374 ft | 258 kts | 57° |
| 2026-05-08 21:53 | 43.45393 | 132.29051 | 4348 ft | 262 kts | 57° |
| 2026-05-08 21:53 | 43.46272 | 132.31258 | 5364 ft | 264 kts | 56° |
| 2026-05-08 21:53 | 43.47161 | 132.33484 | 6370 ft | 266 kts | 56° |
| 2026-05-08 21:53 | 43.48065 | 132.35723 | 7320 ft | 268 kts | 53° |
| 2026-05-08 21:54 | 43.49205 | 132.37727 | 8249 ft | 265 kts | 39° |
| 2026-05-08 21:54 | 43.50647 | 132.39275 | 9183 ft | 262 kts | 25° |
| 2026-05-08 21:54 | 43.52234 | 132.40518 | 10119 ft | 264 kts | 24° |
| 2026-05-08 21:54 | 43.53891 | 132.41815 | 10498 ft | 286 kts | 24° |
| 2026-05-08 21:55 | 43.55696 | 132.43230 | 10745 ft | 309 kts | 25° |
| 2026-05-08 21:55 | 43.57602 | 132.44739 | 11272 ft | 320 kts | 25° |
| 2026-05-08 21:55 | 43.59545 | 132.46291 | 11991 ft | 325 kts | 26° |
| 2026-05-08 21:56 | 43.63509 | 132.49468 | 13462 ft | 334 kts | 26° |
| 2026-05-08 21:56 | 43.65526 | 132.51082 | 14176 ft | 337 kts | 26° |
| 2026-05-08 21:56 | 43.67559 | 132.52710 | 14846 ft | 340 kts | 26° |
| 2026-05-08 21:56 | 43.69612 | 132.54353 | 15531 ft | 342 kts | 26° |
| 2026-05-08 21:57 | 43.71680 | 132.56009 | 16159 ft | 345 kts | 26° |
| 2026-05-08 21:57 | 43.73764 | 132.57680 | 16825 ft | 348 kts | 26° |
| 2026-05-08 21:57 | 43.75871 | 132.59372 | 17506 ft | 351 kts | 26° |
| 2026-05-08 21:57 | 43.77992 | 132.61074 | 18169 ft | 354 kts | 26° |
| 2026-05-08 21:58 | 43.80119 | 132.62803 | 18758 ft | 358 kts | 28° |
| 2026-05-08 21:58 | 43.82105 | 132.64956 | 19351 ft | 366 kts | 38° |
| 2026-05-08 21:58 | 43.84013 | 132.67314 | 19921 ft | 369 kts | 37° |
| 2026-05-08 21:58 | 43.85942 | 132.69690 | 20483 ft | 373 kts | 38° |
| 2026-05-08 21:59 | 43.87891 | 132.72090 | 21041 ft | 377 kts | 38° |
| 2026-05-08 21:59 | 43.89863 | 132.74518 | 21568 ft | 380 kts | 38° |
| 2026-05-08 21:59 | 43.91848 | 132.76968 | 22085 ft | 384 kts | 38° |
| 2026-05-08 21:59 | 43.93851 | 132.79444 | 22583 ft | 387 kts | 38° |
| 2026-05-08 22:00 | 43.95871 | 132.81942 | 23081 ft | 391 kts | 38° |
| 2026-05-08 22:00 | 43.97914 | 132.84469 | 23569 ft | 394 kts | 38° |
| 2026-05-08 22:00 | 43.99966 | 132.87013 | 23987 ft | 397 kts | 38° |
| 2026-05-08 22:00 | 44.02027 | 132.89570 | 24413 ft | 399 kts | 38° |
| 2026-05-08 22:01 | 44.04107 | 132.92152 | 24850 ft | 401 kts | 38° |
| 2026-05-08 22:01 | 44.06168 | 132.94711 | 25284 ft | 403 kts | 38° |
| 2026-05-08 22:01 | 44.08291 | 132.97348 | 25723 ft | 406 kts | 38° |
| 2026-05-08 22:01 | 44.10404 | 132.99976 | 26151 ft | 408 kts | 38° |
| 2026-05-08 22:02 | 44.12492 | 133.02580 | 26567 ft | 410 kts | 38° |
| 2026-05-08 22:02 | 44.14619 | 133.05240 | 27005 ft | 412 kts | 38° |
| 2026-05-08 22:02 | 44.16758 | 133.07911 | 27424 ft | 414 kts | 38° |
| 2026-05-08 22:02 | 44.18912 | 133.10599 | 27831 ft | 416 kts | 38° |
| 2026-05-08 22:03 | 44.21140 | 133.13170 | 28222 ft | 416 kts | 33° |
| 2026-05-08 22:03 | 44.23474 | 133.15568 | 28597 ft | 418 kts | 33° |
| 2026-05-08 22:03 | 44.25825 | 133.17984 | 28965 ft | 420 kts | 33° |
| 2026-05-08 22:03 | 44.28184 | 133.20407 | 29324 ft | 422 kts | 33° |
| 2026-05-08 22:04 | 44.30555 | 133.22843 | 29701 ft | 424 kts | 33° |
| 2026-05-08 22:04 | 44.32943 | 133.25299 | 30033 ft | 427 kts | 33° |
| 2026-05-08 22:04 | 44.35338 | 133.27769 | 30328 ft | 428 kts | 33° |
| 2026-05-08 22:04 | 44.37737 | 133.30254 | 30679 ft | 429 kts | 33° |
| 2026-05-08 22:05 | 44.40140 | 133.32750 | 31008 ft | 430 kts | 33° |
| 2026-05-08 22:05 | 44.42540 | 133.35243 | 31321 ft | 431 kts | 34° |
| 2026-05-08 22:05 | 44.44924 | 133.37718 | 31630 ft | 433 kts | 34° |
| 2026-05-08 22:05 | 44.47345 | 133.40229 | 31954 ft | 433 kts | 34° |
| 2026-05-08 22:06 | 44.49764 | 133.42740 | 32356 ft | 433 kts | 34° |
| 2026-05-08 22:06 | 44.52190 | 133.45265 | 32699 ft | 434 kts | 34° |
| 2026-05-08 22:06 | 44.54615 | 133.47797 | 33020 ft | 435 kts | 34° |
| 2026-05-08 22:06 | 44.57045 | 133.50342 | 33341 ft | 437 kts | 34° |
| 2026-05-08 22:07 | 44.59482 | 133.52896 | 33671 ft | 438 kts | 34° |
| 2026-05-08 22:07 | 44.61929 | 133.55451 | 33984 ft | 439 kts | 34° |
| 2026-05-08 22:07 | 44.64383 | 133.58011 | 34256 ft | 440 kts | 34° |
| 2026-05-08 22:07 | 44.66843 | 133.60588 | 34516 ft | 442 kts | 34° |
| 2026-05-08 22:08 | 44.69313 | 133.63183 | 34759 ft | 444 kts | 34° |
| 2026-05-08 22:08 | 44.71791 | 133.65789 | 35018 ft | 446 kts | 34° |
| 2026-05-08 22:08 | 44.74278 | 133.68400 | 35280 ft | 447 kts | 34° |
| 2026-05-08 22:08 | 44.76777 | 133.71023 | 35538 ft | 448 kts | 34° |
| 2026-05-08 22:09 | 44.79271 | 133.73643 | 35787 ft | 449 kts | 34° |
| 2026-05-08 22:09 | 44.81775 | 133.76280 | 36036 ft | 450 kts | 34° |
| 2026-05-08 22:09 | 44.84285 | 133.78929 | 36288 ft | 451 kts | 34° |
| 2026-05-08 22:09 | 44.86802 | 133.81589 | 36530 ft | 452 kts | 34° |
| 2026-05-08 22:10 | 44.89326 | 133.84257 | 36769 ft | 453 kts | 34° |
| 2026-05-08 22:10 | 44.91847 | 133.86924 | 36894 ft | 454 kts | 34° |
| 2026-05-08 22:10 | 44.94398 | 133.89572 | 36901 ft | 453 kts | 33° |
| 2026-05-08 22:11 | 44.99545 | 133.94683 | 36900 ft | 452 kts | 32° |
| 2026-05-08 22:11 | 45.04726 | 133.99748 | 36893 ft | 453 kts | 32° |
| 2026-05-08 22:12 | 45.09878 | 134.04860 | 36896 ft | 452 kts | 33° |
| 2026-05-08 22:12 | 45.15001 | 134.10002 | 36891 ft | 451 kts | 33° |
| 2026-05-08 22:13 | 45.20090 | 134.15128 | 36904 ft | 452 kts | 33° |
| 2026-05-08 22:13 | 45.25213 | 134.20294 | 36903 ft | 452 kts | 33° |
| 2026-05-08 22:14 | 45.30338 | 134.25460 | 36903 ft | 452 kts | 33° |
| 2026-05-08 22:14 | 45.35464 | 134.30630 | 36907 ft | 452 kts | 33° |
| 2026-05-08 22:15 | 45.40584 | 134.35815 | 36898 ft | 452 kts | 33° |
| 2026-05-08 22:15 | 45.45699 | 134.41020 | 36896 ft | 452 kts | 33° |
| 2026-05-08 22:16 | 45.50817 | 134.46228 | 36889 ft | 452 kts | 33° |
| 2026-05-08 22:16 | 45.55937 | 134.51452 | 36892 ft | 452 kts | 34° |
| 2026-05-08 22:17 | 45.61046 | 134.56688 | 36887 ft | 452 kts | 34° |
| 2026-05-08 22:17 | 45.66160 | 134.61922 | 36890 ft | 452 kts | 34° |
| 2026-05-08 22:18 | 45.71263 | 134.67165 | 36896 ft | 451 kts | 34° |
| 2026-05-08 22:18 | 45.75524 | 134.71572 | 36896 ft | 451 kts | 34° |
| 2026-05-08 22:19 | 45.80583 | 134.76789 | 36886 ft | 451 kts | 34° |
| 2026-05-08 22:19 | 45.85675 | 134.82038 | 36884 ft | 451 kts | 34° |
| 2026-05-08 22:20 | 45.90546 | 134.87712 | 36883 ft | 453 kts | 46° |
| 2026-05-08 22:20 | 45.94449 | 134.94830 | 36873 ft | 454 kts | 51° |
| 2026-05-08 22:21 | 45.98273 | 135.02056 | 36868 ft | 454 kts | 51° |
| 2026-05-08 22:21 | 46.02102 | 135.09302 | 36863 ft | 455 kts | 51° |
| 2026-05-08 22:22 | 46.05924 | 135.16554 | 36868 ft | 455 kts | 51° |
| 2026-05-08 22:22 | 46.09743 | 135.23825 | 36865 ft | 455 kts | 51° |
| 2026-05-08 22:23 | 46.13557 | 135.31114 | 36858 ft | 455 kts | 51° |
| 2026-05-08 22:23 | 46.17367 | 135.38411 | 36852 ft | 455 kts | 51° |
| 2026-05-08 22:24 | 46.21174 | 135.45715 | 36853 ft | 455 kts | 51° |
| 2026-05-08 22:24 | 46.24984 | 135.53040 | 36843 ft | 456 kts | 51° |
| 2026-05-08 22:25 | 46.28780 | 135.60374 | 36838 ft | 456 kts | 52° |
| 2026-05-08 22:25 | 46.32616 | 135.67669 | 36846 ft | 455 kts | 46° |
| 2026-05-08 22:26 | 46.37502 | 135.73346 | 36838 ft | 451 kts | 26° |
| 2026-05-08 22:26 | 46.43375 | 135.76320 | 36831 ft | 448 kts | 11° |
| 2026-05-08 22:27 | 46.49462 | 135.78320 | 36832 ft | 449 kts | 11° |
| 2026-05-08 22:27 | 46.55554 | 135.80364 | 36841 ft | 449 kts | 12° |
| 2026-05-08 22:28 | 46.61646 | 135.82411 | 36849 ft | 449 kts | 12° |
| 2026-05-08 22:28 | 46.67740 | 135.84462 | 36854 ft | 449 kts | 12° |
| 2026-05-08 22:29 | 46.73828 | 135.86500 | 36848 ft | 449 kts | 12° |
| 2026-05-08 22:29 | 46.79915 | 135.88542 | 36846 ft | 448 kts | 12° |
| 2026-05-08 22:30 | 46.85991 | 135.90595 | 36842 ft | 448 kts | 12° |
| 2026-05-08 22:30 | 46.92067 | 135.92644 | 36847 ft | 448 kts | 12° |
| 2026-05-08 22:31 | 46.98144 | 135.94696 | 36849 ft | 448 kts | 12° |
| 2026-05-08 22:31 | 47.04221 | 135.96756 | 36851 ft | 448 kts | 12° |
| 2026-05-08 22:32 | 47.10296 | 135.98831 | 36852 ft | 448 kts | 12° |
| 2026-05-08 22:32 | 47.16381 | 136.00908 | 36850 ft | 449 kts | 12° |
| 2026-05-08 22:33 | 47.22460 | 136.02994 | 36857 ft | 448 kts | 12° |
| 2026-05-08 22:33 | 47.28524 | 136.05093 | 36864 ft | 447 kts | 13° |
| 2026-05-08 22:34 | 47.34529 | 136.07478 | 36861 ft | 447 kts | 15° |
| 2026-05-08 22:34 | 47.40503 | 136.10017 | 36858 ft | 447 kts | 15° |
| 2026-05-08 22:35 | 47.46487 | 136.12527 | 36860 ft | 447 kts | 14° |
| 2026-05-08 22:35 | 47.52436 | 136.14972 | 36857 ft | 446 kts | 14° |
| 2026-05-08 22:36 | 47.58430 | 136.17429 | 36856 ft | 447 kts | 14° |
| 2026-05-08 22:36 | 47.64419 | 136.19893 | 36849 ft | 447 kts | 14° |
| 2026-05-08 22:37 | 47.70416 | 136.22381 | 36847 ft | 447 kts | 14° |
| 2026-05-08 22:37 | 47.76409 | 136.24868 | 36843 ft | 447 kts | 14° |
| 2026-05-08 22:38 | 47.82403 | 136.27366 | 36850 ft | 447 kts | 14° |
| 2026-05-08 22:38 | 47.88399 | 136.29866 | 36844 ft | 447 kts | 14° |
| 2026-05-08 22:39 | 47.94394 | 136.32378 | 36843 ft | 447 kts | 14° |
| 2026-05-08 22:39 | 48.00383 | 136.34899 | 36847 ft | 447 kts | 14° |
| 2026-05-08 22:40 | 48.06382 | 136.37421 | 36852 ft | 447 kts | 14° |
| 2026-05-08 22:40 | 48.12364 | 136.39945 | 36841 ft | 447 kts | 14° |
| 2026-05-08 22:41 | 48.18362 | 136.42476 | 36836 ft | 447 kts | 14° |
| 2026-05-08 22:41 | 48.24359 | 136.45007 | 36834 ft | 447 kts | 14° |
| 2026-05-08 22:42 | 48.30347 | 136.47543 | 36837 ft | 447 kts | 14° |
| 2026-05-08 22:42 | 48.36292 | 136.50069 | 36841 ft | 447 kts | 14° |
| 2026-05-08 22:43 | 48.42272 | 136.52615 | 36834 ft | 447 kts | 14° |
| 2026-05-08 22:43 | 48.48291 | 136.55186 | 36834 ft | 447 kts | 14° |
| 2026-05-08 22:44 | 48.54240 | 136.57736 | 36830 ft | 447 kts | 15° |
| 2026-05-08 22:44 | 48.60224 | 136.60315 | 36827 ft | 448 kts | 15° |
| 2026-05-08 22:45 | 48.66216 | 136.62901 | 36835 ft | 448 kts | 14° |
| 2026-05-08 22:45 | 48.72203 | 136.65490 | 36837 ft | 447 kts | 15° |
| 2026-05-08 22:46 | 48.78184 | 136.68081 | 36840 ft | 447 kts | 14° |
| 2026-05-08 22:46 | 48.84163 | 136.70673 | 36843 ft | 447 kts | 14° |
| 2026-05-08 22:47 | 48.90153 | 136.73270 | 36836 ft | 447 kts | 14° |
| 2026-05-08 22:47 | 48.96137 | 136.75874 | 36832 ft | 447 kts | 14° |
| 2026-05-08 22:48 | 49.02120 | 136.78486 | 36835 ft | 447 kts | 14° |
| 2026-05-08 22:48 | 49.08105 | 136.81048 | 36835 ft | 446 kts | 14° |
| 2026-05-08 22:49 | 49.14100 | 136.83500 | 36835 ft | 446 kts | 13° |
| 2026-05-08 22:49 | 49.23096 | 136.87196 | 36834 ft | 446 kts | 14° |
| 2026-05-08 22:50 | 49.29081 | 136.89691 | 36830 ft | 446 kts | 14° |
| 2026-05-08 22:50 | 49.35066 | 136.92187 | 36834 ft | 446 kts | 14° |
| 2026-05-08 22:51 | 49.41057 | 136.94695 | 36830 ft | 446 kts | 14° |
| 2026-05-08 22:51 | 49.46997 | 136.97194 | 36834 ft | 446 kts | 14° |
| 2026-05-08 22:52 | 49.53018 | 136.99731 | 36835 ft | 445 kts | 14° |
| 2026-05-08 22:52 | 49.58953 | 137.02239 | 36831 ft | 445 kts | 14° |
| 2026-05-08 22:53 | 49.64920 | 137.04757 | 36832 ft | 445 kts | 14° |
| 2026-05-08 22:53 | 49.70890 | 137.07287 | 36816 ft | 445 kts | 14° |
| 2026-05-08 22:54 | 49.76867 | 137.09825 | 36820 ft | 445 kts | 14° |
| 2026-05-08 22:54 | 49.82824 | 137.12364 | 36824 ft | 444 kts | 14° |
| 2026-05-08 22:55 | 49.88784 | 137.14909 | 36837 ft | 444 kts | 14° |
| 2026-05-08 22:55 | 49.94736 | 137.17460 | 36822 ft | 444 kts | 14° |
| 2026-05-08 22:56 | 50.00691 | 137.20014 | 36816 ft | 444 kts | 14° |
| 2026-05-08 22:56 | 50.06646 | 137.22601 | 36810 ft | 444 kts | 17° |
| 2026-05-08 22:57 | 50.12163 | 137.26920 | 36816 ft | 447 kts | 33° |
| 2026-05-08 22:57 | 50.17280 | 137.32435 | 36807 ft | 447 kts | 33° |
| 2026-05-08 22:58 | 50.22408 | 137.37934 | 36817 ft | 447 kts | 33° |
| 2026-05-08 22:58 | 50.27531 | 137.43426 | 36817 ft | 446 kts | 33° |
| 2026-05-08 22:59 | 50.32614 | 137.48885 | 36817 ft | 446 kts | 33° |
| 2026-05-08 22:59 | 50.37727 | 137.54421 | 36815 ft | 447 kts | 33° |
| 2026-05-08 23:00 | 50.42756 | 137.60166 | 36809 ft | 448 kts | 36° |
| 2026-05-08 23:00 | 50.47662 | 137.66194 | 36806 ft | 448 kts | 37° |
| 2026-05-08 23:01 | 50.51736 | 137.71231 | 36800 ft | 448 kts | 36° |
| 2026-05-08 23:01 | 50.56663 | 137.77239 | 36804 ft | 448 kts | 36° |
| 2026-05-08 23:02 | 50.61614 | 137.83227 | 36799 ft | 449 kts | 36° |
| 2026-05-08 23:02 | 50.66565 | 137.89243 | 36800 ft | 450 kts | 36° |
| 2026-05-08 23:03 | 50.71518 | 137.95285 | 36796 ft | 450 kts | 36° |
| 2026-05-08 23:03 | 50.76480 | 138.01368 | 36803 ft | 451 kts | 36° |
| 2026-05-08 23:04 | 50.81435 | 138.07455 | 36802 ft | 451 kts | 36° |
| 2026-05-08 23:04 | 50.86386 | 138.13566 | 36803 ft | 451 kts | 36° |
| 2026-05-08 23:05 | 50.91324 | 138.19677 | 36803 ft | 450 kts | 35° |
| 2026-05-08 23:05 | 50.96541 | 138.25134 | 36806 ft | 449 kts | 31° |
| 2026-05-08 23:06 | 51.01785 | 138.30528 | 36790 ft | 449 kts | 31° |
| 2026-05-08 23:06 | 51.07032 | 138.35945 | 36787 ft | 450 kts | 31° |
| 2026-05-08 23:07 | 51.12276 | 138.41396 | 36785 ft | 450 kts | 31° |
| 2026-05-08 23:07 | 51.17521 | 138.46859 | 36779 ft | 450 kts | 31° |
| 2026-05-08 23:08 | 51.22731 | 138.52300 | 36780 ft | 451 kts | 31° |
| 2026-05-08 23:08 | 51.27987 | 138.57798 | 36772 ft | 452 kts | 31° |
| 2026-05-08 23:09 | 51.33254 | 138.63320 | 36771 ft | 453 kts | 31° |
| 2026-05-08 23:09 | 51.38552 | 138.68903 | 36775 ft | 453 kts | 31° |
| 2026-05-08 23:10 | 51.43799 | 138.74448 | 36790 ft | 452 kts | 31° |
| 2026-05-08 23:10 | 51.49011 | 138.79955 | 36789 ft | 450 kts | 31° |
| 2026-05-08 23:11 | 51.54232 | 138.85495 | 36784 ft | 449 kts | 31° |
| 2026-05-08 23:11 | 51.59443 | 138.91055 | 36783 ft | 449 kts | 31° |
| 2026-05-08 23:12 | 51.64650 | 138.96609 | 36784 ft | 449 kts | 32° |
| 2026-05-08 23:12 | 51.69861 | 139.02184 | 36769 ft | 450 kts | 32° |
| 2026-05-08 23:13 | 51.75076 | 139.07769 | 36764 ft | 450 kts | 32° |
| 2026-05-08 23:13 | 51.80285 | 139.13385 | 36761 ft | 450 kts | 32° |
| 2026-05-08 23:14 | 51.85498 | 139.19007 | 36771 ft | 451 kts | 32° |
| 2026-05-08 23:14 | 51.90714 | 139.24652 | 36756 ft | 452 kts | 32° |
| 2026-05-08 23:15 | 51.95939 | 139.30331 | 36747 ft | 452 kts | 32° |
| 2026-05-08 23:15 | 52.01197 | 139.36051 | 36753 ft | 452 kts | 32° |
| 2026-05-08 23:16 | 52.06394 | 139.41711 | 36749 ft | 453 kts | 32° |
| 2026-05-08 23:16 | 52.11625 | 139.47425 | 36753 ft | 453 kts | 32° |
| 2026-05-08 23:17 | 52.16855 | 139.53175 | 36745 ft | 454 kts | 32° |
| 2026-05-08 23:17 | 52.22101 | 139.58962 | 36756 ft | 455 kts | 32° |
| 2026-05-08 23:18 | 52.27346 | 139.64758 | 36759 ft | 455 kts | 32° |
| 2026-05-08 23:18 | 52.32590 | 139.70565 | 36755 ft | 456 kts | 32° |
| 2026-05-08 23:19 | 52.37811 | 139.76364 | 36749 ft | 456 kts | 32° |
| 2026-05-08 23:19 | 52.43067 | 139.82213 | 36748 ft | 457 kts | 32° |
| 2026-05-08 23:20 | 52.48362 | 139.88120 | 36748 ft | 457 kts | 32° |
| 2026-05-08 23:20 | 52.53616 | 139.94015 | 36762 ft | 457 kts | 33° |
| 2026-05-08 23:21 | 52.58833 | 139.99877 | 36769 ft | 457 kts | 32° |
| 2026-05-08 23:21 | 52.64073 | 140.05797 | 36761 ft | 456 kts | 33° |
| 2026-05-08 23:22 | 52.69217 | 140.11940 | 36757 ft | 457 kts | 35° |
| 2026-05-08 23:22 | 52.74298 | 140.18236 | 36759 ft | 457 kts | 35° |
| 2026-05-08 23:23 | 52.79395 | 140.24534 | 36746 ft | 458 kts | 35° |
| 2026-05-08 23:23 | 52.84516 | 140.30801 | 36745 ft | 459 kts | 35° |
| 2026-05-08 23:24 | 52.89648 | 140.37082 | 36735 ft | 459 kts | 35° |
| 2026-05-08 23:24 | 52.94782 | 140.43393 | 36733 ft | 459 kts | 35° |
| 2026-05-08 23:25 | 52.99902 | 140.49722 | 36733 ft | 460 kts | 35° |
| 2026-05-08 23:25 | 53.05032 | 140.56097 | 36734 ft | 460 kts | 35° |
| 2026-05-08 23:26 | 53.10166 | 140.62477 | 36731 ft | 461 kts | 35° |
| 2026-05-08 23:26 | 53.15311 | 140.68848 | 36748 ft | 460 kts | 32° |
| 2026-05-08 23:27 | 53.20743 | 140.74462 | 36758 ft | 459 kts | 30° |
| 2026-05-08 23:27 | 53.26175 | 140.80048 | 36736 ft | 459 kts | 30° |
| 2026-05-08 23:28 | 53.31610 | 140.85660 | 36725 ft | 459 kts | 30° |
| 2026-05-08 23:28 | 53.37035 | 140.91286 | 36728 ft | 459 kts | 30° |
| 2026-05-08 23:29 | 53.42467 | 140.96916 | 36725 ft | 459 kts | 30° |
| 2026-05-08 23:29 | 53.47891 | 141.02560 | 36723 ft | 459 kts | 30° |
| 2026-05-08 23:30 | 53.53315 | 141.08240 | 36715 ft | 460 kts | 30° |
| 2026-05-08 23:30 | 53.58753 | 141.13941 | 36718 ft | 460 kts | 30° |
| 2026-05-08 23:31 | 53.64150 | 141.19621 | 36718 ft | 461 kts | 30° |
| 2026-05-08 23:31 | 53.69625 | 141.25402 | 36732 ft | 461 kts | 30° |
| 2026-05-08 23:32 | 53.75015 | 141.31103 | 36741 ft | 460 kts | 30° |
| 2026-05-08 23:32 | 53.80424 | 141.36842 | 36740 ft | 459 kts | 30° |
| 2026-05-08 23:33 | 53.85863 | 141.42618 | 36741 ft | 458 kts | 30° |
| 2026-05-08 23:33 | 53.91222 | 141.48337 | 36736 ft | 458 kts | 31° |
| 2026-05-08 23:34 | 53.96611 | 141.54108 | 36733 ft | 458 kts | 31° |
| 2026-05-08 23:34 | 54.02000 | 141.59904 | 36723 ft | 459 kts | 31° |
| 2026-05-08 23:35 | 54.07392 | 141.65737 | 36721 ft | 459 kts | 31° |
| 2026-05-08 23:35 | 54.12782 | 141.71573 | 36722 ft | 459 kts | 31° |
| 2026-05-08 23:36 | 54.18177 | 141.77412 | 36732 ft | 459 kts | 31° |
| 2026-05-08 23:36 | 54.23575 | 141.83269 | 36737 ft | 460 kts | 31° |
| 2026-05-08 23:37 | 54.28973 | 141.89157 | 36744 ft | 460 kts | 31° |
| 2026-05-08 23:37 | 54.34352 | 141.95068 | 36745 ft | 459 kts | 31° |
| 2026-05-08 23:38 | 54.39727 | 142.00988 | 36741 ft | 459 kts | 31° |
| 2026-05-08 23:38 | 54.45098 | 142.06907 | 36741 ft | 459 kts | 31° |
| 2026-05-08 23:39 | 54.50470 | 142.12858 | 36733 ft | 460 kts | 31° |
| 2026-05-08 23:39 | 54.55817 | 142.18774 | 36731 ft | 460 kts | 31° |
| 2026-05-08 23:40 | 54.61200 | 142.24743 | 36737 ft | 460 kts | 31° |
| 2026-05-08 23:40 | 54.66576 | 142.30750 | 36733 ft | 460 kts | 31° |
| 2026-05-08 23:41 | 54.71954 | 142.36781 | 36731 ft | 461 kts | 31° |
| 2026-05-08 23:41 | 54.77335 | 142.42824 | 36749 ft | 461 kts | 31° |
| 2026-05-08 23:42 | 54.82707 | 142.48885 | 36752 ft | 460 kts | 31° |
| 2026-05-08 23:42 | 54.88070 | 142.54957 | 36756 ft | 460 kts | 31° |
| 2026-05-08 23:43 | 54.92528 | 142.60006 | 36762 ft | 460 kts | 31° |
| 2026-05-08 23:43 | 54.97890 | 142.66088 | 36750 ft | 460 kts | 32° |
| 2026-05-08 23:44 | 55.03254 | 142.72214 | 36743 ft | 461 kts | 32° |
| 2026-05-08 23:44 | 55.08606 | 142.78349 | 36746 ft | 461 kts | 32° |
| 2026-05-08 23:45 | 55.13971 | 142.84505 | 36758 ft | 461 kts | 32° |
| 2026-05-08 23:45 | 55.19331 | 142.90679 | 36756 ft | 462 kts | 32° |
| 2026-05-08 23:46 | 55.24685 | 142.96899 | 36752 ft | 462 kts | 32° |
| 2026-05-08 23:46 | 55.30023 | 143.03191 | 36766 ft | 462 kts | 32° |
| 2026-05-08 23:47 | 55.35352 | 143.09505 | 36772 ft | 462 kts | 32° |
| 2026-05-08 23:47 | 55.40672 | 143.15814 | 36770 ft | 461 kts | 32° |
| 2026-05-08 23:48 | 55.45987 | 143.22121 | 36767 ft | 461 kts | 33° |
| 2026-05-08 23:48 | 55.51305 | 143.28453 | 36753 ft | 461 kts | 36° |
| 2026-05-08 23:49 | 55.56612 | 143.34820 | 36755 ft | 462 kts | 31° |
| 2026-05-08 23:49 | 55.61927 | 143.41198 | 36761 ft | 462 kts | 32° |
| 2026-05-08 23:50 | 55.67249 | 143.47581 | 36763 ft | 462 kts | 35° |
| 2026-05-08 23:50 | 55.72576 | 143.54016 | 36769 ft | 463 kts | 33° |
| 2026-05-08 23:51 | 55.77866 | 143.60440 | 36762 ft | 464 kts | 31° |
| 2026-05-08 23:51 | 55.83185 | 143.66932 | 36775 ft | 464 kts | 33° |
| 2026-05-08 23:52 | 55.88513 | 143.73437 | 36789 ft | 464 kts | 32° |
| 2026-05-08 23:52 | 55.93837 | 143.79944 | 36793 ft | 464 kts | 32° |
| 2026-05-08 23:53 | 55.99166 | 143.86503 | 36782 ft | 465 kts | 33° |
| 2026-05-08 23:53 | 56.04506 | 143.93079 | 36781 ft | 466 kts | 32° |
| 2026-05-08 23:54 | 56.09835 | 143.99668 | 36783 ft | 466 kts | 33° |
| 2026-05-08 23:55 | 56.17794 | 144.09560 | 36794 ft | 466 kts | 33° |
| 2026-05-08 23:55 | 56.23116 | 144.16206 | 36805 ft | 465 kts | 32° |
| 2026-05-08 23:56 | 56.28415 | 144.22873 | 36809 ft | 465 kts | 32° |
| 2026-05-08 23:56 | 56.33709 | 144.29577 | 36808 ft | 465 kts | 33° |
| 2026-05-08 23:57 | 56.38977 | 144.36387 | 36796 ft | 466 kts | 31° |
| 2026-05-08 23:57 | 56.44238 | 144.43234 | 36838 ft | 465 kts | 35° |
| 2026-05-08 23:58 | 56.49479 | 144.50069 | 36833 ft | 464 kts | 34° |
| 2026-05-08 23:58 | 56.54723 | 144.56893 | 36838 ft | 463 kts | 34° |
| 2026-05-08 23:59 | 56.59921 | 144.63690 | 36829 ft | 463 kts | 34° |
| 2026-05-08 23:59 | 56.65148 | 144.70544 | 36836 ft | 463 kts | 35° |
| 2026-05-09 00:00 | 56.70359 | 144.77430 | 36833 ft | 463 kts | 35° |
| 2026-05-09 00:00 | 56.75567 | 144.84331 | 36833 ft | 463 kts | 35° |
| 2026-05-09 00:01 | 56.80772 | 144.91252 | 36822 ft | 463 kts | 34° |
| 2026-05-09 00:01 | 56.86000 | 144.98173 | 36822 ft | 464 kts | 36° |
| 2026-05-09 00:02 | 56.91216 | 145.05153 | 36832 ft | 465 kts | 33° |
| 2026-05-09 00:02 | 56.96435 | 145.12163 | 36830 ft | 466 kts | 34° |
| 2026-05-09 00:03 | 57.01654 | 145.19190 | 36855 ft | 465 kts | 36° |
| 2026-05-09 00:03 | 57.06855 | 145.26231 | 36851 ft | 464 kts | 33° |
| 2026-05-09 00:04 | 57.12029 | 145.33224 | 36863 ft | 464 kts | 39° |
| 2026-05-09 00:04 | 57.17225 | 145.40297 | 36855 ft | 464 kts | 35° |
| 2026-05-09 00:05 | 57.22432 | 145.47381 | 36852 ft | 466 kts | 35° |
| 2026-05-09 00:05 | 57.27642 | 145.54523 | 36851 ft | 467 kts | 35° |
| 2026-05-09 00:06 | 57.32853 | 145.61718 | 36857 ft | 467 kts | 36° |
| 2026-05-09 00:06 | 57.38064 | 145.68916 | 36859 ft | 467 kts | 35° |
| 2026-05-09 00:07 | 57.43274 | 145.76122 | 36871 ft | 466 kts | 37° |
| 2026-05-09 00:07 | 57.48464 | 145.83354 | 36869 ft | 466 kts | 36° |
| 2026-05-09 00:08 | 57.53657 | 145.90595 | 36869 ft | 466 kts | 34° |
| 2026-05-09 00:08 | 57.58816 | 145.97826 | 36868 ft | 466 kts | 36° |
| 2026-05-09 00:09 | 57.64003 | 146.05117 | 36870 ft | 467 kts | 36° |
| 2026-05-09 00:09 | 57.69196 | 146.12441 | 36875 ft | 467 kts | 36° |
| 2026-05-09 00:10 | 57.74381 | 146.19765 | 36892 ft | 466 kts | 37° |
| 2026-05-09 00:10 | 57.79546 | 146.27103 | 36895 ft | 466 kts | 37° |
| 2026-05-09 00:11 | 57.84700 | 146.34469 | 36896 ft | 465 kts | 37° |
| 2026-05-09 00:11 | 57.89848 | 146.41844 | 36889 ft | 465 kts | 37° |
| 2026-05-09 00:12 | 57.94988 | 146.49228 | 36887 ft | 465 kts | 37° |
| 2026-05-09 00:12 | 58.00130 | 146.56646 | 36885 ft | 465 kts | 37° |
| 2026-05-09 00:13 | 58.05261 | 146.64084 | 36883 ft | 465 kts | 37° |
| 2026-05-09 00:13 | 58.10402 | 146.71537 | 36878 ft | 466 kts | 37° |
| 2026-05-09 00:14 | 58.15543 | 146.79022 | 36900 ft | 466 kts | 37° |
| 2026-05-09 00:14 | 58.20666 | 146.86543 | 36905 ft | 466 kts | 37° |
| 2026-05-09 00:15 | 58.25752 | 146.94022 | 36904 ft | 465 kts | 37° |
| 2026-05-09 00:15 | 58.30878 | 147.01555 | 36900 ft | 465 kts | 37° |
| 2026-05-09 00:16 | 58.35994 | 147.09116 | 36907 ft | 466 kts | 37° |
| 2026-05-09 00:16 | 58.41102 | 147.16706 | 36909 ft | 466 kts | 37° |
| 2026-05-09 00:17 | 58.46208 | 147.24338 | 36914 ft | 466 kts | 38° |
| 2026-05-09 00:17 | 58.51314 | 147.31993 | 36916 ft | 466 kts | 38° |
| 2026-05-09 00:18 | 58.56390 | 147.39614 | 36916 ft | 466 kts | 38° |
| 2026-05-09 00:18 | 58.61485 | 147.47304 | 36916 ft | 466 kts | 38° |
| 2026-05-09 00:19 | 58.66572 | 147.55010 | 36917 ft | 466 kts | 38° |
| 2026-05-09 00:19 | 58.71654 | 147.62740 | 36925 ft | 466 kts | 38° |
| 2026-05-09 00:20 | 58.76725 | 147.70478 | 36927 ft | 465 kts | 38° |
| 2026-05-09 00:20 | 58.81782 | 147.78236 | 36891 ft | 465 kts | 38° |
| 2026-05-09 00:20 | 58.84312 | 147.82132 | 36632 ft | 463 kts | 38° |
| 2026-05-09 00:21 | 58.86828 | 147.86008 | 36386 ft | 463 kts | 38° |
| 2026-05-09 00:21 | 58.89343 | 147.89887 | 36141 ft | 462 kts | 38° |
| 2026-05-09 00:21 | 58.91855 | 147.93773 | 35900 ft | 462 kts | 38° |
| 2026-05-09 00:21 | 58.94365 | 147.97668 | 35661 ft | 463 kts | 38° |
| 2026-05-09 00:22 | 58.96882 | 148.01580 | 35428 ft | 463 kts | 38° |
| 2026-05-09 00:22 | 58.99395 | 148.05488 | 35190 ft | 463 kts | 38° |
| 2026-05-09 00:22 | 59.01905 | 148.09399 | 34924 ft | 463 kts | 38° |
| 2026-05-09 00:22 | 59.04427 | 148.13338 | 34064 ft | 469 kts | 38° |
| 2026-05-09 00:23 | 59.06987 | 148.17345 | 33059 ft | 475 kts | 38° |
| 2026-05-09 00:23 | 59.09579 | 148.21404 | 32029 ft | 478 kts | 39° |
| 2026-05-09 00:23 | 59.12157 | 148.25442 | 31026 ft | 473 kts | 39° |
| 2026-05-09 00:23 | 59.14698 | 148.29428 | 29995 ft | 467 kts | 39° |
| 2026-05-09 00:24 | 59.17217 | 148.33394 | 28939 ft | 465 kts | 39° |
| 2026-05-09 00:24 | 59.19697 | 148.37312 | 28505 ft | 454 kts | 39° |
| 2026-05-09 00:24 | 59.22142 | 148.41188 | 27835 ft | 449 kts | 39° |
| 2026-05-09 00:24 | 59.24522 | 148.44973 | 27205 ft | 444 kts | 39° |
| 2026-05-09 00:25 | 59.26904 | 148.48767 | 26568 ft | 440 kts | 38° |
| 2026-05-09 00:25 | 59.29259 | 148.52514 | 25935 ft | 435 kts | 38° |
| 2026-05-09 00:25 | 59.31600 | 148.56238 | 25302 ft | 431 kts | 38° |
| 2026-05-09 00:25 | 59.33906 | 148.59919 | 24690 ft | 427 kts | 38° |
| 2026-05-09 00:26 | 59.36198 | 148.63587 | 24079 ft | 423 kts | 38° |
| 2026-05-09 00:26 | 59.38462 | 148.67220 | 23468 ft | 419 kts | 38° |
| 2026-05-09 00:26 | 59.40705 | 148.70829 | 22814 ft | 414 kts | 38° |
| 2026-05-09 00:26 | 59.42914 | 148.74394 | 22259 ft | 407 kts | 37° |
| 2026-05-09 00:27 | 59.45081 | 148.77894 | 21702 ft | 401 kts | 37° |
| 2026-05-09 00:27 | 59.47225 | 148.81359 | 21173 ft | 396 kts | 37° |
| 2026-05-09 00:27 | 59.49341 | 148.84785 | 20657 ft | 392 kts | 37° |
| 2026-05-09 00:27 | 59.51440 | 148.88184 | 20142 ft | 388 kts | 37° |
| 2026-05-09 00:28 | 59.53508 | 148.91530 | 19652 ft | 383 kts | 37° |
| 2026-05-09 00:28 | 59.55559 | 148.94854 | 19142 ft | 379 kts | 37° |
| 2026-05-09 00:28 | 59.57584 | 148.98145 | 18649 ft | 375 kts | 37° |
| 2026-05-09 00:28 | 59.59589 | 149.01413 | 18122 ft | 372 kts | 37° |
| 2026-05-09 00:29 | 59.61570 | 149.04652 | 17572 ft | 367 kts | 37° |
| 2026-05-09 00:29 | 59.62863 | 149.06774 | 17220 ft | 364 kts | 37° |
| 2026-05-09 00:29 | 59.64799 | 149.09951 | 16702 ft | 358 kts | 37° |
| 2026-05-09 00:29 | 59.66663 | 149.13190 | 16172 ft | 355 kts | 44° |
| 2026-05-09 00:30 | 59.68221 | 149.16955 | 15652 ft | 354 kts | 54° |
| 2026-05-09 00:30 | 59.69432 | 149.21175 | 15113 ft | 352 kts | 60° |
| 2026-05-09 00:30 | 59.70561 | 149.25444 | 14574 ft | 348 kts | 60° |
| 2026-05-09 00:30 | 59.71688 | 149.29665 | 14046 ft | 345 kts | 60° |
| 2026-05-09 00:31 | 59.72811 | 149.33844 | 13464 ft | 342 kts | 60° |
| 2026-05-09 00:31 | 59.73925 | 149.37982 | 12921 ft | 338 kts | 60° |
| 2026-05-09 00:31 | 59.75027 | 149.42074 | 12387 ft | 334 kts | 60° |
| 2026-05-09 00:31 | 59.76112 | 149.46121 | 11869 ft | 331 kts | 60° |
| 2026-05-09 00:32 | 59.77181 | 149.50132 | 11348 ft | 327 kts | 61° |
| 2026-05-09 00:32 | 59.78237 | 149.54109 | 10832 ft | 324 kts | 61° |
| 2026-05-09 00:32 | 59.79274 | 149.58031 | 10539 ft | 315 kts | 61° |
| 2026-05-09 00:32 | 59.80261 | 149.61775 | 10376 ft | 296 kts | 61° |
| 2026-05-09 00:33 | 59.81194 | 149.65319 | 10082 ft | 284 kts | 60° |
| 2026-05-09 00:33 | 59.82105 | 149.68778 | 9890 ft | 280 kts | 61° |
| 2026-05-09 00:33 | 59.82994 | 149.72173 | 9759 ft | 273 kts | 62° |
| 2026-05-09 00:33 | 59.83867 | 149.75500 | 9619 ft | 270 kts | 62° |
| 2026-05-09 00:34 | 59.84736 | 149.78811 | 9479 ft | 269 kts | 62° |
| 2026-05-09 00:34 | 59.85602 | 149.82115 | 9145 ft | 272 kts | 62° |
| 2026-05-09 00:34 | 59.86477 | 149.85451 | 8739 ft | 267 kts | 62° |
| 2026-05-09 00:34 | 59.87326 | 149.88693 | 8295 ft | 262 kts | 63° |
| 2026-05-09 00:35 | 59.88162 | 149.91884 | 7819 ft | 258 kts | 63° |
| 2026-05-09 00:35 | 59.88987 | 149.95049 | 7327 ft | 256 kts | 63° |
| 2026-05-09 00:35 | 59.89802 | 149.98184 | 6832 ft | 254 kts | 63° |
| 2026-05-09 00:35 | 59.90609 | 150.01301 | 6361 ft | 252 kts | 63° |
| 2026-05-09 00:36 | 59.91412 | 150.04399 | 5808 ft | 253 kts | 64° |
| 2026-05-09 00:36 | 59.92172 | 150.07580 | 5245 ft | 252 kts | 71° |
| 2026-05-09 00:36 | 59.92532 | 150.10939 | 5062 ft | 246 kts | 86° |
| 2026-05-09 00:36 | 59.92505 | 150.14339 | 4940 ft | 245 kts | 93° |
| 2026-05-09 00:37 | 59.92426 | 150.17693 | 4826 ft | 237 kts | 93° |
| 2026-05-09 00:37 | 59.92352 | 150.20918 | 4719 ft | 228 kts | 93° |
| 2026-05-09 00:37 | 59.92283 | 150.24014 | 4616 ft | 218 kts | 93° |
| 2026-05-09 00:37 | 59.92217 | 150.26931 | 4520 ft | 205 kts | 93° |
| 2026-05-09 00:38 | 59.92155 | 150.29689 | 4432 ft | 194 kts | 93° |
| 2026-05-09 00:38 | 59.92089 | 150.32344 | 4227 ft | 188 kts | 94° |
| 2026-05-09 00:38 | 59.92022 | 150.34901 | 4065 ft | 182 kts | 94° |
| 2026-05-09 00:38 | 59.91961 | 150.37390 | 3819 ft | 177 kts | 94° |
| 2026-05-09 00:39 | 59.91904 | 150.39805 | 3583 ft | 172 kts | 94° |
| 2026-05-09 00:39 | 59.91848 | 150.42116 | 3355 ft | 161 kts | 94° |
| 2026-05-09 00:39 | 59.91796 | 150.44276 | 3138 ft | 152 kts | 94° |
| 2026-05-09 00:39 | 59.91747 | 150.46303 | 2943 ft | 142 kts | 95° |
| 2026-05-09 00:40 | 59.91700 | 150.48239 | 2743 ft | 139 kts | 94° |
| 2026-05-09 00:40 | 59.91653 | 150.50142 | 2552 ft | 137 kts | 94° |
| 2026-05-09 00:40 | 59.91606 | 150.52042 | 2349 ft | 137 kts | 94° |
| 2026-05-09 00:41 | 59.91512 | 150.55790 | 1911 ft | 133 kts | 95° |
| 2026-05-09 00:41 | 59.91456 | 150.57627 | 1712 ft | 134 kts | 94° |
| 2026-05-09 00:41 | 59.91412 | 150.59466 | 1538 ft | 131 kts | 92° |
| 2026-05-09 00:41 | 59.91374 | 150.61299 | 1378 ft | 133 kts | 92° |
| 2026-05-09 00:42 | 59.91328 | 150.63126 | 1204 ft | 131 kts | 92° |
| 2026-05-09 00:42 | 59.91274 | 150.64938 | 1040 ft | 131 kts | 94° |
| 2026-05-09 00:42 | 59.91234 | 150.66757 | 825 ft | 130 kts | 93° |
| 2026-05-09 00:42 | 59.91190 | 150.68570 | 661 ft | 132 kts | 92° |
| 2026-05-09 00:43 | 59.91145 | 150.70329 | 583 ft | 114 kts | 93° |
| 2026-05-09 00:43 | 59.91108 | 150.71622 | 584 ft | 69 kts | 93° |
| 2026-05-09 00:43 | 59.91091 | 150.72283 | 581 ft | 33 kts | 93° |
| 2026-05-09 00:43 | 59.91083 | 150.72565 | 584 ft | 15 kts | 93° |
| 2026-05-09 00:44 | 59.91130 | 150.72674 | 584 ft | 10 kts | 7° |
| 2026-05-09 00:44 | 59.91206 | 150.72682 | 583 ft | 11 kts | 4° |
| 2026-05-09 00:44 | 59.91284 | 150.72677 | 583 ft | 12 kts | 334° |
| 2026-05-09 00:44 | 59.91300 | 150.72546 | 583 ft | 9 kts | 271° |
| 2026-05-09 00:45 | 59.91304 | 150.72409 | 583 ft | 11 kts | 273° |
| 2026-05-09 00:45 | 59.91308 | 150.72239 | 583 ft | 12 kts | 273° |
| 2026-05-09 00:45 | 59.91328 | 150.72140 | 583 ft | 8 kts | 343° |
| 2026-05-09 00:45 | 59.91372 | 150.72139 | 583 ft | 4 kts | 3° |
| 2026-05-09 00:46 | 59.91374 | 150.72139 | 583 ft | 0 kts | 3° |